createdAt,value
2022-11-08T00:00:01.031Z,13.25
2022-11-08T00:01:01.048Z,13.25
2022-11-08T00:02:01.141Z,13.25
2022-11-08T00:03:01.079Z,13.24
2022-11-08T00:04:00.987Z,13.24
2022-11-08T00:05:00.986Z,13.24
2022-11-08T00:06:00.983Z,13.22
2022-11-08T00:07:00.956Z,13.22
2022-11-08T00:08:00.951Z,13.21
2022-11-08T00:09:00.941Z,13.20
2022-11-08T00:10:00.919Z,13.18
2022-11-08T00:11:00.936Z,13.18
2022-11-08T00:12:00.902Z,13.17
2022-11-08T00:13:00.890Z,13.15
2022-11-08T00:14:00.887Z,13.15
2022-11-08T00:15:00.867Z,13.14
2022-11-08T00:16:00.872Z,13.14
2022-11-08T00:17:00.846Z,13.20
2022-11-08T00:18:00.834Z,13.24
2022-11-08T00:19:00.821Z,13.30
2022-11-08T00:20:00.803Z,13.32
2022-11-08T00:21:00.819Z,13.29
2022-11-08T00:22:00.790Z,13.25
2022-11-08T00:23:00.786Z,13.20
2022-11-08T00:24:00.770Z,13.15
2022-11-08T00:25:00.759Z,13.11
2022-11-08T00:26:00.766Z,13.06
2022-11-08T00:27:00.728Z,13.03
2022-11-08T00:28:00.722Z,13.02
2022-11-08T00:29:00.724Z,13.00
2022-11-08T00:30:00.699Z,12.96
2022-11-08T00:31:00.705Z,12.96
2022-11-08T00:32:00.677Z,12.93
2022-11-08T00:33:00.670Z,12.89
2022-11-08T00:34:00.653Z,12.87
2022-11-08T00:35:00.652Z,12.89
2022-11-08T00:36:00.659Z,12.92
2022-11-08T00:37:00.624Z,12.89
2022-11-08T00:38:00.655Z,12.85
2022-11-08T00:39:00.602Z,12.84
2022-11-08T00:40:00.590Z,12.79
2022-11-08T00:41:00.598Z,12.78
2022-11-08T00:42:00.567Z,12.77
2022-11-08T00:43:00.558Z,12.71
2022-11-08T00:44:00.546Z,12.71
2022-11-08T00:45:00.540Z,12.69
2022-11-08T00:46:00.532Z,12.69
2022-11-08T00:47:00.511Z,12.67
2022-11-08T00:48:00.496Z,12.64
2022-11-08T00:49:00.488Z,12.62
2022-11-08T00:50:00.478Z,12.59
2022-11-08T00:51:00.483Z,12.56
2022-11-08T00:52:00.460Z,12.56
2022-11-08T00:53:00.439Z,12.56
2022-11-08T00:54:00.430Z,12.60
2022-11-08T00:55:00.429Z,12.62
2022-11-08T00:56:00.420Z,12.67
2022-11-08T00:57:00.394Z,12.70
2022-11-08T00:58:00.786Z,12.74
2022-11-08T00:59:00.382Z,12.77
2022-11-08T01:00:00.363Z,12.75
2022-11-08T01:01:00.493Z,12.77
2022-11-08T01:02:00.561Z,12.78
2022-11-08T01:03:00.333Z,12.78
2022-11-08T01:04:00.318Z,12.82
2022-11-08T01:05:00.314Z,12.84
2022-11-08T01:06:00.323Z,12.82
2022-11-08T01:07:00.283Z,12.79
2022-11-08T01:08:00.276Z,12.81
2022-11-08T01:09:00.314Z,12.75
2022-11-08T01:10:00.252Z,12.75
2022-11-08T01:11:00.258Z,12.74
2022-11-08T01:12:00.232Z,12.69
2022-11-08T01:13:00.222Z,12.64
2022-11-08T01:14:00.246Z,12.64
2022-11-08T01:15:00.375Z,12.60
2022-11-08T01:16:00.208Z,12.57
2022-11-08T01:17:00.179Z,12.56
2022-11-08T01:18:00.171Z,12.54
2022-11-08T01:19:00.153Z,12.51
2022-11-08T01:20:00.199Z,12.49
2022-11-08T01:21:00.150Z,12.48
2022-11-08T01:22:00.123Z,12.45
2022-11-08T01:23:00.109Z,12.42
2022-11-08T01:24:00.110Z,12.41
2022-11-08T01:25:00.087Z,12.39
2022-11-08T01:26:00.096Z,12.37
2022-11-08T01:27:00.075Z,12.33
2022-11-08T01:28:00.053Z,12.31
2022-11-08T01:29:00.036Z,12.29
2022-11-08T01:30:00.036Z,12.24
2022-11-08T01:31:00.046Z,12.21
2022-11-08T01:32:00.004Z,12.20
2022-11-08T01:32:59.994Z,12.16
2022-11-08T01:33:59.989Z,12.12
2022-11-08T01:34:59.974Z,12.09
2022-11-08T01:35:59.984Z,12.08
2022-11-08T01:36:59.956Z,12.06
2022-11-08T01:37:59.938Z,12.05
2022-11-08T01:38:59.933Z,12.01
2022-11-08T01:39:59.914Z,11.99
2022-11-08T01:40:59.921Z,11.96
2022-11-08T01:41:59.902Z,11.93
2022-11-08T01:42:59.887Z,11.90
2022-11-08T01:43:59.869Z,11.87
2022-11-08T01:44:59.866Z,11.86
2022-11-08T01:45:59.869Z,11.86
2022-11-08T01:46:59.852Z,11.86
2022-11-08T01:47:59.831Z,11.83
2022-11-08T01:48:59.822Z,11.83
2022-11-08T01:49:59.806Z,11.82
2022-11-08T01:50:59.819Z,11.82
2022-11-08T01:51:59.798Z,11.82
2022-11-08T01:52:59.774Z,11.80
2022-11-08T01:53:59.766Z,11.82
2022-11-08T01:54:59.766Z,11.78
2022-11-08T01:55:59.753Z,11.78
2022-11-08T01:56:59.722Z,11.80
2022-11-08T01:57:59.724Z,11.82
2022-11-08T01:58:59.885Z,11.85
2022-11-08T01:59:59.700Z,11.86
2022-11-08T02:00:59.753Z,11.87
2022-11-08T02:01:59.833Z,11.87
2022-11-08T02:02:59.664Z,11.90
2022-11-08T02:03:59.658Z,11.93
2022-11-08T02:04:59.650Z,11.94
2022-11-08T02:05:59.649Z,11.97
2022-11-08T02:06:59.615Z,12.01
2022-11-08T02:07:59.611Z,12.02
2022-11-08T02:08:59.598Z,12.04
2022-11-08T02:09:59.588Z,12.08
2022-11-08T02:10:59.597Z,12.08
2022-11-08T02:11:59.564Z,12.11
2022-11-08T02:13:04.657Z,12.13
2022-11-08T02:13:59.542Z,12.15
2022-11-08T02:14:59.531Z,12.16
2022-11-08T02:15:59.531Z,12.21
2022-11-08T02:16:59.506Z,12.23
2022-11-08T02:17:59.504Z,12.23
2022-11-08T02:18:59.494Z,12.24
2022-11-08T02:19:59.477Z,12.24
2022-11-08T02:20:59.489Z,12.26
2022-11-08T02:21:59.454Z,12.26
2022-11-08T02:22:59.463Z,12.26
2022-11-08T02:23:59.435Z,12.27
2022-11-08T02:24:59.427Z,12.30
2022-11-08T02:25:59.413Z,12.37
2022-11-08T02:26:59.412Z,12.41
2022-11-08T02:27:59.387Z,12.45
2022-11-08T02:28:59.374Z,12.46
2022-11-08T02:29:59.353Z,12.49
2022-11-08T02:30:59.355Z,12.49
2022-11-08T02:31:59.358Z,12.49
2022-11-08T02:32:59.327Z,12.54
2022-11-08T02:33:59.326Z,12.57
2022-11-08T02:34:59.312Z,12.59
2022-11-08T02:35:59.319Z,12.57
2022-11-08T02:36:59.303Z,12.56
2022-11-08T02:37:59.267Z,12.57
2022-11-08T02:38:59.273Z,12.57
2022-11-08T02:39:59.249Z,12.57
2022-11-08T02:40:59.250Z,12.54
2022-11-08T02:41:59.246Z,12.54
2022-11-08T02:42:59.220Z,12.52
2022-11-08T02:43:59.207Z,12.52
2022-11-08T02:44:59.213Z,12.51
2022-11-08T02:45:59.180Z,12.54
2022-11-08T02:46:59.200Z,12.52
2022-11-08T02:47:59.168Z,12.54
2022-11-08T02:48:59.149Z,12.56
2022-11-08T02:49:59.139Z,12.57
2022-11-08T02:50:59.130Z,12.57
2022-11-08T02:51:59.137Z,12.57
2022-11-08T02:52:59.114Z,12.54
2022-11-08T02:53:59.101Z,12.54
2022-11-08T02:54:59.090Z,12.54
2022-11-08T02:55:59.075Z,12.52
2022-11-08T02:56:59.091Z,12.52
2022-11-08T02:57:59.051Z,12.51
2022-11-08T02:58:59.037Z,12.51
2022-11-08T02:59:59.023Z,12.56
2022-11-08T03:00:59.092Z,12.54
2022-11-08T03:01:59.179Z,12.54
2022-11-08T03:02:58.999Z,12.52
2022-11-08T03:03:58.996Z,12.52
2022-11-08T03:04:58.972Z,12.52
2022-11-08T03:05:58.967Z,12.52
2022-11-08T03:06:58.971Z,12.57
2022-11-08T03:07:58.939Z,12.62
2022-11-08T03:08:58.932Z,12.63
2022-11-08T03:09:58.925Z,12.62
2022-11-08T03:10:58.909Z,12.57
2022-11-08T03:11:58.922Z,12.54
2022-11-08T03:12:58.903Z,12.51
2022-11-08T03:13:58.878Z,12.46
2022-11-08T03:14:58.861Z,12.41
2022-11-08T03:15:58.851Z,12.38
2022-11-08T03:16:58.864Z,12.34
2022-11-08T03:17:58.839Z,12.27
2022-11-08T03:18:58.812Z,12.23
2022-11-08T03:19:58.802Z,12.23
2022-11-08T03:20:58.792Z,12.20
2022-11-08T03:21:58.803Z,12.19
2022-11-08T03:22:58.773Z,12.13
2022-11-08T03:23:58.765Z,12.12
2022-11-08T03:24:58.744Z,12.16
2022-11-08T03:25:58.743Z,12.16
2022-11-08T03:26:58.743Z,12.16
2022-11-08T03:27:58.716Z,12.12
2022-11-08T03:28:58.707Z,12.06
2022-11-08T03:29:58.691Z,12.02
2022-11-08T03:30:58.683Z,12.06
2022-11-08T03:31:58.686Z,12.08
2022-11-08T03:32:58.658Z,12.05
2022-11-08T03:33:58.654Z,12.02
2022-11-08T03:34:58.643Z,11.97
2022-11-08T03:35:58.633Z,11.93
2022-11-08T03:36:58.638Z,11.90
2022-11-08T03:37:58.601Z,11.85
2022-11-08T03:38:58.608Z,11.85
2022-11-08T03:39:58.585Z,11.77
2022-11-08T03:40:58.573Z,11.74
2022-11-08T03:41:58.582Z,11.70
2022-11-08T03:42:58.558Z,11.65
2022-11-08T03:43:58.547Z,11.62
2022-11-08T03:44:58.529Z,11.61
2022-11-08T03:45:58.517Z,11.56
2022-11-08T03:46:58.533Z,11.53
2022-11-08T03:47:58.495Z,11.56
2022-11-08T03:48:58.493Z,11.62
2022-11-08T03:49:58.467Z,11.64
2022-11-08T03:50:58.470Z,11.62
2022-11-08T03:51:58.470Z,11.59
2022-11-08T03:52:58.452Z,11.54
2022-11-08T03:53:58.425Z,11.52
2022-11-08T03:54:58.419Z,11.49
2022-11-08T03:55:58.413Z,11.46
2022-11-08T03:56:58.403Z,11.44
2022-11-08T03:57:58.377Z,11.43
2022-11-08T03:58:58.383Z,11.38
2022-11-08T03:59:58.362Z,11.35
2022-11-08T04:00:58.460Z,11.32
2022-11-08T04:01:58.512Z,11.29
2022-11-08T04:02:58.338Z,11.28
2022-11-08T04:03:58.320Z,11.27
2022-11-08T04:04:58.311Z,11.24
2022-11-08T04:05:58.323Z,11.21
2022-11-08T04:06:58.307Z,11.19
2022-11-08T04:07:58.275Z,11.16
2022-11-08T04:08:58.266Z,11.16
2022-11-08T04:09:58.250Z,11.14
2022-11-08T04:10:58.240Z,11.13
2022-11-08T04:11:58.248Z,11.14
2022-11-08T04:12:58.219Z,11.14
2022-11-08T04:13:58.227Z,11.11
2022-11-08T04:14:58.199Z,11.11
2022-11-08T04:15:58.254Z,11.09
2022-11-08T04:16:58.188Z,11.09
2022-11-08T04:17:58.153Z,11.06
2022-11-08T04:18:58.153Z,11.06
2022-11-08T04:19:58.138Z,11.01
2022-11-08T04:20:58.124Z,11.01
2022-11-08T04:21:58.122Z,10.96
2022-11-08T04:22:58.098Z,10.94
2022-11-08T04:23:58.086Z,10.92
2022-11-08T04:24:58.081Z,10.91
2022-11-08T04:25:58.078Z,10.89
2022-11-08T04:26:58.077Z,10.89
2022-11-08T04:27:58.045Z,10.89
2022-11-08T04:28:58.033Z,10.89
2022-11-08T04:29:58.023Z,10.86
2022-11-08T04:30:58.011Z,10.86
2022-11-08T04:31:58.013Z,10.84
2022-11-08T04:32:57.999Z,10.84
2022-11-08T04:33:57.983Z,10.86
2022-11-08T04:34:57.966Z,10.83
2022-11-08T04:35:57.957Z,10.81
2022-11-08T04:36:57.971Z,10.80
2022-11-08T04:37:57.928Z,10.77
2022-11-08T04:38:57.932Z,10.77
2022-11-08T04:39:57.924Z,10.76
2022-11-08T04:40:57.901Z,10.76
2022-11-08T04:42:02.181Z,10.74
2022-11-08T04:42:57.884Z,10.73
2022-11-08T04:43:57.859Z,10.74
2022-11-08T04:44:57.854Z,10.74
2022-11-08T04:45:57.842Z,10.76
2022-11-08T04:46:57.852Z,10.74
2022-11-08T04:47:57.816Z,10.77
2022-11-08T04:48:57.832Z,10.76
2022-11-08T04:49:57.794Z,10.76
2022-11-08T04:50:57.782Z,10.73
2022-11-08T04:51:57.795Z,10.70
2022-11-08T04:52:57.765Z,10.66
2022-11-08T04:53:57.757Z,10.65
2022-11-08T04:54:57.741Z,10.65
2022-11-08T04:55:57.740Z,10.63
2022-11-08T04:56:57.734Z,10.63
2022-11-08T04:57:57.715Z,10.62
2022-11-08T04:58:57.702Z,10.60
2022-11-08T04:59:57.688Z,10.60
2022-11-08T05:00:57.672Z,10.59
2022-11-08T05:01:57.825Z,10.58
2022-11-08T05:02:57.771Z,10.58
2022-11-08T05:03:57.637Z,10.56
2022-11-08T05:04:57.625Z,10.53
2022-11-08T05:05:57.615Z,10.52
2022-11-08T05:06:57.607Z,10.51
2022-11-08T05:07:57.606Z,10.47
2022-11-08T05:08:57.587Z,10.47
2022-11-08T05:10:02.079Z,10.47
2022-11-08T05:10:57.556Z,10.44
2022-11-08T05:11:57.558Z,10.44
2022-11-08T05:12:57.555Z,10.44
2022-11-08T05:13:57.521Z,10.44
2022-11-08T05:14:57.510Z,10.43
2022-11-08T05:15:57.501Z,10.42
2022-11-08T05:16:57.492Z,10.42
2022-11-08T05:17:57.491Z,10.37
2022-11-08T05:18:57.476Z,10.53
2022-11-08T05:19:57.447Z,10.58
2022-11-08T05:20:57.449Z,10.60
2022-11-08T05:21:57.439Z,10.62
2022-11-08T05:22:57.436Z,10.60
2022-11-08T05:23:57.408Z,10.58
2022-11-08T05:24:57.403Z,10.51
2022-11-08T05:25:57.391Z,10.44
2022-11-08T05:26:57.378Z,10.43
2022-11-08T05:27:57.416Z,10.39
2022-11-08T05:28:57.368Z,10.37
2022-11-08T05:29:57.343Z,10.40
2022-11-08T05:30:57.339Z,10.40
2022-11-08T05:31:57.321Z,10.39
2022-11-08T05:32:57.329Z,10.37
2022-11-08T05:33:57.295Z,10.34
2022-11-08T05:34:57.292Z,10.33
2022-11-08T05:36:00.005Z,10.30
2022-11-08T05:36:57.273Z,10.28
2022-11-08T05:37:57.280Z,10.25
2022-11-08T05:38:57.283Z,10.25
2022-11-08T05:39:57.285Z,10.25
2022-11-08T05:40:57.228Z,10.24
2022-11-08T05:41:57.217Z,10.22
2022-11-08T05:42:57.223Z,10.21
2022-11-08T05:43:57.194Z,10.18
2022-11-08T05:44:57.179Z,10.15
2022-11-08T05:45:57.161Z,10.15
2022-11-08T05:46:57.157Z,10.15
2022-11-08T05:47:57.166Z,10.12
2022-11-08T05:48:57.130Z,10.12
2022-11-08T05:49:57.116Z,10.14
2022-11-08T05:50:57.116Z,10.15
2022-11-08T05:51:57.094Z,10.17
2022-11-08T05:52:57.105Z,10.15
2022-11-08T05:54:04.065Z,10.12
2022-11-08T05:54:57.062Z,10.12
2022-11-08T05:55:57.049Z,10.10
2022-11-08T05:56:57.065Z,10.10
2022-11-08T05:58:02.709Z,10.12
2022-11-08T05:58:57.015Z,10.14
2022-11-08T05:59:57.008Z,10.14
2022-11-08T06:00:56.998Z,10.14
2022-11-08T06:01:57.100Z,10.17
2022-11-08T06:02:57.117Z,10.18
2022-11-08T06:03:56.963Z,10.18
2022-11-08T06:04:56.952Z,10.21
2022-11-08T06:05:56.943Z,10.24
2022-11-08T06:06:56.927Z,10.26
2022-11-08T06:07:56.938Z,10.30
2022-11-08T06:08:56.907Z,10.32
2022-11-08T06:09:56.887Z,10.34
2022-11-08T06:10:56.888Z,10.34
2022-11-08T06:11:56.873Z,10.39
2022-11-08T06:12:56.873Z,10.39
2022-11-08T06:13:56.839Z,10.39
2022-11-08T06:14:56.849Z,10.40
2022-11-08T06:15:56.831Z,10.43
2022-11-08T06:16:56.820Z,10.44
2022-11-08T06:17:56.816Z,10.44
2022-11-08T06:18:56.797Z,10.44
2022-11-08T06:19:56.776Z,10.44
2022-11-08T06:20:56.860Z,10.51
2022-11-08T06:21:56.766Z,10.52
2022-11-08T06:22:56.759Z,10.53
2022-11-08T06:23:56.724Z,10.52
2022-11-08T06:24:56.731Z,10.53
2022-11-08T06:25:56.709Z,10.52
2022-11-08T06:26:56.714Z,10.52
2022-11-08T06:27:56.710Z,10.53
2022-11-08T06:28:56.685Z,10.52
2022-11-08T06:29:56.666Z,10.51
2022-11-08T06:30:56.650Z,10.51
2022-11-08T06:31:56.652Z,10.47
2022-11-08T06:32:56.655Z,10.47
2022-11-08T06:33:56.619Z,10.51
2022-11-08T06:34:56.608Z,10.47
2022-11-08T06:35:56.595Z,10.46
2022-11-08T06:36:56.588Z,10.47
2022-11-08T06:38:00.265Z,10.44
2022-11-08T06:38:56.567Z,10.43
2022-11-08T06:39:56.551Z,10.39
2022-11-08T06:40:56.546Z,10.37
2022-11-08T06:41:56.533Z,10.42
2022-11-08T06:42:56.542Z,10.42
2022-11-08T06:43:56.511Z,10.40
2022-11-08T06:44:56.495Z,10.37
2022-11-08T06:45:56.478Z,10.36
2022-11-08T06:46:56.481Z,10.33
2022-11-08T06:47:56.476Z,10.33
2022-11-08T06:48:56.457Z,10.30
2022-11-08T06:49:56.434Z,10.30
2022-11-08T06:50:56.426Z,10.32
2022-11-08T06:51:56.429Z,10.32
2022-11-08T06:52:56.418Z,10.28
2022-11-08T06:53:56.393Z,10.30
2022-11-08T06:54:56.381Z,10.26
2022-11-08T06:55:56.374Z,10.28
2022-11-08T06:56:56.354Z,10.25
2022-11-08T06:57:56.358Z,10.24
2022-11-08T06:58:56.329Z,10.22
2022-11-08T06:59:56.321Z,10.19
2022-11-08T07:00:56.307Z,10.17
2022-11-08T07:01:56.395Z,10.14
2022-11-08T07:02:56.462Z,10.12
2022-11-08T07:03:56.278Z,10.09
2022-11-08T07:04:56.270Z,10.12
2022-11-08T07:05:56.257Z,10.10
2022-11-08T07:06:56.239Z,10.10
2022-11-08T07:07:56.239Z,10.09
2022-11-08T07:08:56.215Z,10.07
2022-11-08T07:10:00.818Z,10.06
2022-11-08T07:10:56.200Z,10.03
2022-11-08T07:11:56.185Z,10.04
2022-11-08T07:12:56.192Z,10.06
2022-11-08T07:13:56.169Z,10.06
2022-11-08T07:14:56.155Z,10.06
2022-11-08T07:15:56.138Z,10.07
2022-11-08T07:16:56.149Z,10.07
2022-11-08T07:17:56.174Z,10.10
2022-11-08T07:18:56.162Z,10.12
2022-11-08T07:19:56.093Z,10.15
2022-11-08T07:20:56.086Z,10.14
2022-11-08T07:21:56.066Z,10.14
2022-11-08T07:22:56.103Z,10.14
2022-11-08T07:23:56.152Z,10.17
2022-11-08T07:24:56.039Z,10.17
2022-11-08T07:25:56.033Z,10.19
2022-11-08T07:26:56.016Z,10.19
2022-11-08T07:27:56.027Z,10.22
2022-11-08T07:28:55.998Z,10.24
2022-11-08T07:29:56.033Z,10.24
2022-11-08T07:30:55.978Z,10.25
2022-11-08T07:31:55.969Z,10.26
2022-11-08T07:32:55.969Z,10.28
2022-11-08T07:33:55.936Z,10.30
2022-11-08T07:34:55.946Z,10.32
2022-11-08T07:35:55.917Z,10.34
2022-11-08T07:36:55.900Z,10.34
2022-11-08T07:37:55.920Z,10.36
2022-11-08T07:38:55.881Z,10.39
2022-11-08T07:39:55.874Z,10.40
2022-11-08T07:40:55.868Z,10.43
2022-11-08T07:41:55.846Z,10.43
2022-11-08T07:43:12.864Z,10.46
2022-11-08T07:43:55.856Z,10.46
2022-11-08T07:44:55.818Z,10.47
2022-11-08T07:45:55.801Z,10.52
2022-11-08T07:46:55.794Z,10.56
2022-11-08T07:47:55.796Z,10.58
2022-11-08T07:48:55.770Z,10.59
2022-11-08T07:49:55.755Z,10.62
2022-11-08T07:50:55.753Z,10.66
2022-11-08T07:51:55.734Z,10.70
2022-11-08T07:52:55.738Z,10.70
2022-11-08T07:54:00.325Z,10.70
2022-11-08T07:54:55.707Z,10.73
2022-11-08T07:55:55.689Z,10.71
2022-11-08T07:56:55.685Z,10.76
2022-11-08T07:57:55.687Z,10.77
2022-11-08T07:58:55.661Z,10.78
2022-11-08T08:00:06.307Z,10.80
2022-11-08T08:00:55.639Z,10.80
2022-11-08T08:01:55.662Z,10.80
2022-11-08T08:02:55.703Z,10.81
2022-11-08T08:03:55.605Z,10.83
2022-11-08T08:04:55.593Z,10.86
2022-11-08T08:06:00.809Z,10.89
2022-11-08T08:06:55.615Z,10.99
2022-11-08T08:07:55.570Z,11.07
2022-11-08T08:08:55.541Z,11.10
2022-11-08T08:09:55.533Z,11.13
2022-11-08T08:10:55.530Z,11.13
2022-11-08T08:11:55.508Z,11.14
2022-11-08T08:12:55.521Z,11.14
2022-11-08T08:13:55.490Z,11.19
2022-11-08T08:14:55.467Z,11.24
2022-11-08T08:15:55.471Z,11.24
2022-11-08T08:16:55.443Z,11.25
2022-11-08T08:17:55.455Z,11.27
2022-11-08T08:18:56.847Z,11.28
2022-11-08T08:19:55.409Z,11.28
2022-11-08T08:20:55.407Z,11.28
2022-11-08T08:21:55.396Z,11.31
2022-11-08T08:22:55.391Z,11.32
2022-11-08T08:23:55.371Z,11.34
2022-11-08T08:24:58.226Z,11.35
2022-11-08T08:25:55.355Z,11.36
2022-11-08T08:26:55.339Z,11.38
2022-11-08T08:27:55.359Z,11.39
2022-11-08T08:28:55.322Z,11.39
2022-11-08T08:29:55.305Z,11.38
2022-11-08T08:30:55.301Z,11.39
2022-11-08T08:31:55.274Z,11.39
2022-11-08T08:33:21.871Z,11.41
2022-11-08T08:33:55.254Z,11.43
2022-11-08T08:34:55.248Z,11.43
2022-11-08T08:35:55.231Z,11.46
2022-11-08T08:36:55.220Z,11.47
2022-11-08T08:37:55.212Z,11.47
2022-11-08T08:38:55.199Z,11.47
2022-11-08T08:39:55.197Z,11.47
2022-11-08T08:40:56.109Z,11.46
2022-11-08T08:41:55.165Z,11.47
2022-11-08T08:42:55.169Z,11.44
2022-11-08T08:43:55.139Z,11.46
2022-11-08T08:44:55.129Z,11.46
2022-11-08T08:45:55.113Z,11.47
2022-11-08T08:46:55.105Z,11.52
2022-11-08T08:47:55.108Z,11.53
2022-11-08T08:48:55.085Z,11.54
2022-11-08T08:49:55.073Z,11.54
2022-11-08T08:50:55.069Z,11.54
2022-11-08T08:51:55.057Z,11.52
2022-11-08T08:52:55.052Z,11.54
2022-11-08T08:53:55.014Z,11.56
2022-11-08T08:54:55.075Z,11.59
2022-11-08T08:55:54.999Z,11.62
2022-11-08T08:56:54.991Z,11.59
2022-11-08T08:57:54.982Z,11.64
2022-11-08T09:01:54.948Z,11.72
2022-11-08T09:02:54.927Z,11.78
2022-11-08T09:03:54.931Z,11.80
2022-11-08T09:04:54.903Z,11.83
2022-11-08T09:05:54.902Z,11.85
2022-11-08T09:06:54.943Z,11.87
2022-11-08T09:07:54.871Z,11.89
2022-11-08T09:08:54.873Z,11.93
2022-11-08T09:09:54.842Z,11.94
2022-11-08T09:10:54.845Z,11.96
2022-11-08T09:11:54.821Z,11.97
2022-11-08T09:12:54.820Z,12.02
2022-11-08T09:13:54.819Z,12.05
2022-11-08T09:14:54.798Z,12.09
2022-11-08T09:15:54.786Z,12.15
2022-11-08T09:16:54.772Z,12.21
2022-11-08T09:17:54.760Z,12.26
2022-11-08T09:18:54.841Z,12.30
2022-11-08T09:19:57.294Z,12.31
2022-11-08T09:20:54.737Z,12.34
2022-11-08T09:21:54.753Z,12.37
2022-11-08T09:22:54.714Z,12.37
2022-11-08T09:23:54.708Z,12.38
2022-11-08T09:24:54.679Z,12.41
2022-11-08T09:25:54.730Z,12.44
2022-11-08T09:26:54.669Z,12.46
2022-11-08T09:27:54.663Z,12.48
2022-11-08T09:28:54.664Z,12.51
2022-11-08T09:29:54.631Z,12.52
2022-11-08T09:30:54.659Z,12.54
2022-11-08T09:31:54.606Z,12.59
2022-11-08T09:33:00.711Z,12.62
2022-11-08T09:33:54.710Z,12.64
2022-11-08T09:34:54.632Z,12.66
2022-11-08T09:35:54.566Z,12.69
2022-11-08T09:36:54.555Z,12.74
2022-11-08T09:37:54.544Z,12.75
2022-11-08T09:38:54.547Z,12.78
2022-11-08T09:39:54.518Z,12.82
2022-11-08T09:40:54.509Z,12.85
2022-11-08T09:41:55.747Z,12.89
2022-11-08T09:42:54.490Z,12.95
2022-11-08T09:43:54.492Z,12.99
2022-11-08T09:44:54.466Z,13.03
2022-11-08T09:45:54.447Z,13.06
2022-11-08T09:46:54.455Z,13.11
2022-11-08T09:47:54.435Z,13.14
2022-11-08T09:48:54.437Z,13.18
2022-11-08T09:49:54.435Z,13.25
2022-11-08T09:50:54.397Z,13.30
2022-11-08T09:51:54.384Z,13.33
2022-11-08T09:52:54.380Z,13.37
2022-11-08T09:53:54.380Z,13.40
2022-11-08T09:54:54.345Z,13.43
2022-11-08T09:55:54.337Z,13.44
2022-11-08T09:56:54.331Z,13.49
2022-11-08T09:57:54.326Z,13.51
2022-11-08T09:58:54.335Z,13.55
2022-11-08T09:59:54.294Z,13.58
2022-11-08T10:00:54.295Z,13.61
2022-11-08T10:01:54.317Z,13.63
2022-11-08T10:02:54.270Z,13.63
2022-11-08T10:03:54.328Z,13.65
2022-11-08T10:04:54.255Z,13.65
2022-11-08T10:05:54.239Z,13.69
2022-11-08T10:06:58.188Z,13.69
2022-11-08T10:07:54.233Z,13.65
2022-11-08T10:08:54.218Z,13.69
2022-11-08T10:09:54.172Z,13.74
2022-11-08T10:10:54.167Z,13.76
2022-11-08T10:11:54.157Z,13.77
2022-11-08T10:12:54.160Z,13.79
2022-11-08T10:13:54.159Z,13.81
2022-11-08T10:14:54.789Z,13.81
2022-11-08T10:15:54.114Z,13.87
2022-11-08T10:16:54.105Z,13.91
2022-11-08T10:17:54.089Z,13.94
2022-11-08T10:18:54.097Z,14.07
2022-11-08T10:19:54.085Z,14.19
2022-11-08T10:20:54.060Z,14.25
2022-11-08T10:21:54.040Z,14.28
2022-11-08T10:22:54.043Z,14.25
2022-11-08T10:23:54.040Z,14.24
2022-11-08T10:24:54.023Z,14.21
2022-11-08T10:25:54.006Z,14.17
2022-11-08T10:26:53.999Z,14.19
2022-11-08T10:27:53.976Z,14.17
2022-11-08T10:28:53.979Z,14.19
2022-11-08T10:29:53.953Z,14.14
2022-11-08T10:30:53.947Z,14.17
2022-11-08T10:31:53.934Z,14.16
2022-11-08T10:32:53.932Z,14.14
2022-11-08T10:33:53.917Z,14.13
2022-11-08T10:34:53.898Z,14.12
2022-11-08T10:35:59.051Z,14.09
2022-11-08T10:36:53.883Z,14.10
2022-11-08T10:37:53.867Z,14.09
2022-11-08T10:38:53.876Z,14.12
2022-11-08T10:39:53.839Z,14.12
2022-11-08T10:40:53.832Z,14.13
2022-11-08T10:41:53.821Z,14.13
2022-11-08T10:42:53.815Z,14.16
2022-11-08T10:43:53.808Z,14.20
2022-11-08T10:44:54.645Z,14.24
2022-11-08T10:45:53.778Z,14.24
2022-11-08T10:46:53.765Z,14.27
2022-11-08T10:47:53.747Z,14.27
2022-11-08T10:48:53.761Z,14.27
2022-11-08T10:49:53.732Z,14.29
2022-11-08T10:50:53.723Z,14.34
2022-11-08T10:51:53.711Z,14.39
2022-11-08T10:52:53.706Z,14.44
2022-11-08T10:53:53.728Z,14.50
2022-11-08T10:54:53.684Z,14.50
2022-11-08T10:55:53.661Z,14.50
2022-11-08T10:56:53.665Z,14.49
2022-11-08T10:57:53.639Z,14.44
2022-11-08T10:58:53.645Z,14.43
2022-11-08T10:59:53.627Z,14.43
2022-11-08T11:00:53.609Z,14.42
2022-11-08T11:01:53.672Z,14.43
2022-11-08T11:02:53.593Z,14.47
2022-11-08T11:03:53.592Z,14.61
2022-11-08T11:04:53.576Z,14.72
2022-11-08T11:05:53.556Z,14.80
2022-11-08T11:06:53.583Z,14.80
2022-11-08T11:07:57.649Z,14.78
2022-11-08T11:08:53.537Z,14.75
2022-11-08T11:09:53.503Z,14.72
2022-11-08T11:10:53.506Z,14.72
2022-11-08T11:11:53.483Z,14.71
2022-11-08T11:12:53.485Z,14.71
2022-11-08T11:13:53.477Z,14.69
2022-11-08T11:14:53.454Z,14.68
2022-11-08T11:15:53.453Z,14.67
2022-11-08T11:16:53.440Z,14.67
2022-11-08T11:17:53.414Z,14.64
2022-11-08T11:18:53.439Z,14.64
2022-11-08T11:19:53.393Z,14.69
2022-11-08T11:20:53.387Z,14.72
2022-11-08T11:21:53.384Z,14.78
2022-11-08T11:22:53.367Z,14.80
2022-11-08T11:23:53.366Z,14.80
2022-11-08T11:24:53.358Z,14.81
2022-11-08T11:25:53.328Z,14.87
2022-11-08T11:26:53.330Z,14.90
2022-11-08T11:27:53.303Z,14.93
2022-11-08T11:28:53.316Z,14.95
2022-11-08T11:29:53.290Z,14.95
2022-11-08T11:30:53.275Z,14.99
2022-11-08T11:31:53.268Z,15.01
2022-11-08T11:32:53.316Z,14.99
2022-11-08T11:33:53.265Z,14.99
2022-11-08T11:34:53.229Z,14.95
2022-11-08T11:35:53.226Z,14.95
2022-11-08T11:36:53.215Z,14.93
2022-11-08T11:37:53.197Z,14.90
2022-11-08T11:38:55.157Z,14.87
2022-11-08T11:39:53.173Z,14.87
2022-11-08T11:40:53.206Z,14.88
2022-11-08T11:41:53.149Z,14.90
2022-11-08T11:42:53.138Z,14.91
2022-11-08T11:43:53.150Z,14.93
2022-11-08T11:44:53.134Z,14.93
2022-11-08T11:45:53.118Z,14.95
2022-11-08T11:46:53.107Z,14.95
2022-11-08T11:47:53.095Z,15.01
2022-11-08T11:48:53.091Z,15.03
2022-11-08T11:49:53.083Z,15.09
2022-11-08T11:50:53.182Z,15.08
2022-11-08T11:51:53.064Z,15.11
2022-11-08T11:52:53.055Z,15.13
2022-11-08T11:53:53.045Z,15.15
2022-11-08T11:54:53.021Z,15.19
2022-11-08T11:55:53.020Z,15.20
2022-11-08T11:56:52.996Z,15.27
2022-11-08T11:57:52.982Z,15.30
2022-11-08T11:58:53.007Z,15.31
2022-11-08T11:59:52.953Z,15.33
2022-11-08T12:00:52.949Z,15.35
2022-11-08T12:01:53.007Z,15.36
2022-11-08T12:02:52.921Z,15.38
2022-11-08T12:03:52.930Z,15.39
2022-11-08T12:04:52.905Z,15.41
2022-11-08T12:05:52.919Z,15.41
2022-11-08T12:06:52.945Z,15.42
2022-11-08T12:07:52.866Z,15.45
2022-11-08T12:08:52.899Z,15.45
2022-11-08T12:09:52.848Z,15.46
2022-11-08T12:10:52.846Z,15.46
2022-11-08T12:11:52.854Z,15.43
2022-11-08T12:12:52.814Z,15.43
2022-11-08T12:13:54.465Z,15.42
2022-11-08T12:14:52.805Z,15.41
2022-11-08T12:15:52.776Z,15.39
2022-11-08T12:16:52.780Z,15.36
2022-11-08T12:17:52.751Z,15.36
2022-11-08T12:18:52.792Z,15.36
2022-11-08T12:19:52.735Z,15.36
2022-11-08T12:20:52.723Z,15.36
2022-11-08T12:21:52.709Z,15.36
2022-11-08T12:22:52.700Z,15.35
2022-11-08T12:23:52.703Z,15.31
2022-11-08T12:24:52.715Z,15.31
2022-11-08T12:25:52.669Z,15.31
2022-11-08T12:26:52.653Z,15.31
2022-11-08T12:27:52.648Z,15.30
2022-11-08T12:28:52.652Z,15.30
2022-11-08T12:29:52.619Z,15.31
2022-11-08T12:30:52.617Z,15.30
2022-11-08T12:31:52.611Z,15.31
2022-11-08T12:32:52.593Z,15.33
2022-11-08T12:33:57.663Z,15.33
2022-11-08T12:34:52.582Z,15.30
2022-11-08T12:35:52.574Z,15.30
2022-11-08T12:36:52.546Z,15.28
2022-11-08T12:37:52.533Z,15.30
2022-11-08T12:38:52.541Z,15.30
2022-11-08T12:39:52.528Z,15.30
2022-11-08T12:40:52.511Z,15.28
2022-11-08T12:41:52.495Z,15.31
2022-11-08T12:42:52.485Z,15.33
2022-11-08T12:43:52.482Z,15.35
2022-11-08T12:44:52.461Z,15.36
2022-11-08T12:45:52.445Z,15.38
2022-11-08T12:46:52.443Z,15.39
2022-11-08T12:47:52.427Z,15.39
2022-11-08T12:48:52.426Z,15.39
2022-11-08T12:49:52.404Z,15.39
2022-11-08T12:50:53.072Z,15.41
2022-11-08T12:51:52.382Z,15.41
2022-11-08T12:52:52.376Z,15.41
2022-11-08T12:53:52.371Z,15.39
2022-11-08T12:54:52.344Z,15.39